createdAt,value
2017-11-06T00:00:17.187Z,7.2
2017-11-06T00:02:17.007Z,2.6
2017-11-06T00:04:16.834Z,8.3
2017-11-06T00:06:17.652Z,5.7
2017-11-06T00:08:17.504Z,2.1
2017-11-06T00:10:17.354Z,3.2
2017-11-06T00:12:21.179Z,5.4
2017-11-06T00:14:17.023Z,5.8
2017-11-06T00:16:17.828Z,4.9
2017-11-06T00:18:18.673Z,4.7
2017-11-06T00:20:21.462Z,2.7
2017-11-06T00:22:17.298Z,7.9
2017-11-06T00:24:17.138Z,8.6
2017-11-06T00:26:17.970Z,7.4
2017-11-06T00:28:20.749Z,3.1
2017-11-06T00:30:17.622Z,7
2017-11-06T00:32:17.439Z,5.1
2017-11-06T00:34:21.216Z,4.9
2017-11-06T00:36:18.057Z,6.6
2017-11-06T00:38:16.911Z,7.3
2017-11-06T00:40:17.767Z,4.7
2017-11-06T00:42:21.548Z,2.6
2017-11-06T00:44:17.433Z,3.9
2017-11-06T00:46:17.257Z,5.4
2017-11-06T00:48:18.066Z,5.2
2017-11-06T00:50:17.906Z,4.8
2017-11-06T00:52:21.698Z,4.2
2017-11-06T00:54:17.554Z,6.7
2017-11-06T00:56:17.368Z,2.6
2017-11-06T00:58:17.190Z,4.2
2017-11-06T01:00:20.991Z,3.7
2017-11-06T01:02:16.815Z,2.3
2017-11-06T01:04:21.620Z,4.5
2017-11-06T01:06:17.455Z,4.6
2017-11-06T01:08:17.289Z,5.1
2017-11-06T01:10:18.111Z,6.2
2017-11-06T01:12:20.925Z,3
2017-11-06T01:14:21.745Z,4.8
2017-11-06T01:16:17.564Z,2.9
2017-11-06T01:18:18.355Z,7.5
2017-11-06T01:20:21.173Z,7.6
2017-11-06T01:22:20.966Z,3.4
2017-11-06T01:24:16.787Z,5.9
2017-11-06T01:26:17.601Z,5.4
2017-11-06T01:28:18.406Z,4.1
2017-11-06T01:30:18.205Z,6.6
2017-11-06T01:32:17.984Z,12.8
2017-11-06T01:34:16.806Z,7
2017-11-06T01:36:17.593Z,3.5
2017-11-06T01:38:21.400Z,9.6
2017-11-06T01:40:18.228Z,3.4
2017-11-06T01:42:18.016Z,4.9
2017-11-06T01:44:20.817Z,6.6
2017-11-06T01:46:17.642Z,6.8
2017-11-06T01:48:21.414Z,4.4
2017-11-06T01:50:17.263Z,3.1
2017-11-06T01:52:21.062Z,7.2
2017-11-06T01:54:16.866Z,4.4
2017-11-06T01:56:17.669Z,4.6
2017-11-06T01:58:17.506Z,2.7
2017-11-06T02:00:18.352Z,7.6
2017-11-06T02:02:18.138Z,5.5
2017-11-06T02:04:20.925Z,5.4
2017-11-06T02:06:17.763Z,4.8
2017-11-06T02:08:21.590Z,2.7
2017-11-06T02:10:17.390Z,5.9
2017-11-06T02:12:21.194Z,3.2
2017-11-06T02:14:17.045Z,6.7
2017-11-06T02:16:17.816Z,6
2017-11-06T02:18:18.623Z,7.8
2017-11-06T02:20:17.463Z,3.8
2017-11-06T02:22:21.258Z,5.3
2017-11-06T02:24:21.036Z,3.9
2017-11-06T02:26:17.876Z,6.9
2017-11-06T02:28:21.677Z,6.5
2017-11-06T02:30:21.475Z,9
2017-11-06T02:32:21.294Z,5.6
2017-11-06T02:34:21.058Z,4.8
2017-11-06T02:36:17.900Z,2.7
2017-11-06T02:38:17.697Z,4.7
2017-11-06T02:40:17.526Z,7.8
2017-11-06T02:42:18.300Z,8.3
2017-11-06T02:44:17.095Z,8.8
2017-11-06T02:46:17.935Z,7
2017-11-06T02:48:20.731Z,5.3
2017-11-06T02:50:21.559Z,6.8
2017-11-06T02:52:18.340Z,2.4
2017-11-06T02:54:17.192Z,5.2
2017-11-06T02:56:18.027Z,4.7
2017-11-06T02:58:17.814Z,3.6
2017-11-06T03:00:18.655Z,12
2017-11-06T03:02:18.457Z,7
2017-11-06T03:04:21.281Z,9
2017-11-06T03:06:18.085Z,9.1
2017-11-06T03:08:20.878Z,9.1
2017-11-06T03:10:17.673Z,2.9
2017-11-06T03:12:17.509Z,5.5
2017-11-06T03:14:21.313Z,2.9
2017-11-06T03:16:17.147Z,6.3
2017-11-06T03:18:17.975Z,4.6
2017-11-06T03:20:20.775Z,3
2017-11-06T03:22:21.586Z,12.7
2017-11-06T03:24:18.432Z,3.9
2017-11-06T03:26:17.242Z,8.7
2017-11-06T03:28:18.090Z,6
2017-11-06T03:30:17.898Z,5.9
2017-11-06T03:32:18.670Z,4.5
2017-11-06T03:34:18.488Z,7.2
2017-11-06T03:36:17.322Z,6
2017-11-06T03:38:21.125Z,5.1
2017-11-06T03:40:17.966Z,7.7
2017-11-06T03:42:16.806Z,7
2017-11-06T03:44:17.614Z,8.2
2017-11-06T03:46:17.443Z,6.4
2017-11-06T03:48:21.252Z,3.2
2017-11-06T03:50:17.096Z,5
2017-11-06T03:52:20.895Z,3.6
2017-11-06T03:54:17.726Z,7.7
2017-11-06T03:56:21.531Z,6.6
2017-11-06T03:58:17.377Z,6.3
2017-11-06T04:00:21.182Z,4.8
2017-11-06T04:02:17.044Z,3
2017-11-06T04:04:17.863Z,6
2017-11-06T04:06:18.643Z,6.6
2017-11-06T04:08:17.469Z,6.1
2017-11-06T04:10:17.313Z,5.7
2017-11-06T04:12:18.118Z,3.3
2017-11-06T04:14:17.955Z,5.8
2017-11-06T04:16:17.767Z,6.5
2017-11-06T04:18:18.587Z,4.3
2017-11-06T04:20:18.411Z,4.7
2017-11-06T04:22:18.200Z,4
2017-11-06T04:24:17.049Z,8.5
2017-11-06T04:26:16.852Z,5.4
2017-11-06T04:28:21.626Z,3.9
2017-11-06T04:30:17.461Z,5.5
2017-11-06T04:32:17.319Z,4.9
2017-11-06T04:34:18.105Z,5
2017-11-06T04:36:17.910Z,4.6
2017-11-06T04:38:21.737Z,4.2
2017-11-06T04:40:17.543Z,5.8
2017-11-06T04:42:18.364Z,3.5
2017-11-06T04:44:21.164Z,3.7
2017-11-06T04:46:17.975Z,3.5
2017-11-06T04:48:20.822Z,8
2017-11-06T04:50:18.607Z,5.5
2017-11-06T04:52:21.410Z,6.2
2017-11-06T04:54:21.231Z,5.1
2017-11-06T04:56:17.053Z,5.5
2017-11-06T04:58:20.832Z,3.4
2017-11-06T05:00:21.660Z,4.6
2017-11-06T05:02:17.489Z,5
2017-11-06T05:04:21.281Z,12.8
2017-11-06T05:06:17.092Z,10.9
2017-11-06T05:08:20.881Z,3.9
2017-11-06T05:10:17.703Z,5.6
2017-11-06T05:12:21.510Z,5.8
2017-11-06T05:14:21.316Z,4.5
2017-11-06T05:16:18.121Z,7.2
2017-11-06T05:18:17.960Z,2.5
2017-11-06T05:20:17.756Z,3.7
2017-11-06T05:22:18.530Z,8.7
2017-11-06T05:24:21.321Z,4.3
2017-11-06T05:26:21.140Z,5
2017-11-06T05:28:20.939Z,4.9
2017-11-06T05:30:17.767Z,6.6
2017-11-06T05:32:18.551Z,5.4
2017-11-06T05:34:21.373Z,4.3
2017-11-06T05:36:18.182Z,4.5
2017-11-06T05:38:17.968Z,12.4
2017-11-06T05:40:17.753Z,6
2017-11-06T05:42:21.553Z,5.4
2017-11-06T05:44:18.346Z,5.7
2017-11-06T05:46:17.159Z,4.4
2017-11-06T05:48:17.950Z,4.2
2017-11-06T05:50:17.743Z,6.8
2017-11-06T05:52:18.538Z,4.6
2017-11-06T05:54:18.299Z,4.3
2017-11-06T05:56:17.117Z,4
2017-11-06T05:58:17.887Z,5.1
2017-11-06T06:00:21.652Z,7.7
2017-11-06T06:02:17.474Z,6.2
2017-11-06T06:04:18.250Z,3.8
2017-11-06T06:06:17.057Z,7.3
2017-11-06T06:08:17.825Z,2.9
2017-11-06T06:10:17.653Z,3.1
2017-11-06T06:12:18.440Z,2.3
2017-11-06T06:14:18.210Z,8
2017-11-06T06:16:17.982Z,11.3
2017-11-06T06:18:17.789Z,8.3
2017-11-06T06:20:18.570Z,6.2
2017-11-06T06:22:18.350Z,3.2
2017-11-06T06:24:18.139Z,4.2
2017-11-06T06:26:17.925Z,4.3
2017-11-06T06:28:18.684Z,4.9
2017-11-06T06:30:21.456Z,9.6
2017-11-06T06:32:18.228Z,9.4
2017-11-06T06:34:21.047Z,5.3
2017-11-06T06:36:17.797Z,3.3
2017-11-06T06:38:18.587Z,8.5
2017-11-06T06:40:17.374Z,4
2017-11-06T06:42:18.126Z,5.8
2017-11-06T06:44:17.921Z,8.2
2017-11-06T06:46:17.666Z,3.8
2017-11-06T06:48:18.436Z,7.8
2017-11-06T06:50:21.200Z,6.2
2017-11-06T06:52:21.023Z,4.6
2017-11-06T06:54:17.781Z,5.2
2017-11-06T06:56:17.598Z,17.1
2017-11-06T06:58:18.376Z,2.1
2017-11-06T07:00:18.158Z,4.9
2017-11-06T07:02:17.922Z,9.8
2017-11-06T07:04:21.728Z,5.4
2017-11-06T07:06:17.523Z,3.7
2017-11-06T07:08:18.302Z,8.2
2017-11-06T07:10:18.114Z,3
2017-11-06T07:12:17.917Z,5.1
2017-11-06T07:14:18.705Z,8.5
2017-11-06T07:16:17.493Z,6.6
2017-11-06T07:18:18.295Z,12
2017-11-06T07:20:21.108Z,4.5
2017-11-06T07:22:20.912Z,8.1
2017-11-06T07:24:21.685Z,5.2
2017-11-06T07:26:17.515Z,6.9
2017-11-06T07:28:21.307Z,9.3
2017-11-06T07:30:18.101Z,5.5
2017-11-06T07:32:20.873Z,7.6
2017-11-06T07:34:17.674Z,8.5
2017-11-06T07:36:17.463Z,5.3
2017-11-06T07:38:21.253Z,5.7
2017-11-06T07:40:18.053Z,5
2017-11-06T07:42:20.815Z,3.8
2017-11-06T07:44:17.640Z,6.8
2017-11-06T07:46:17.442Z,10.5
2017-11-06T07:48:18.226Z,6.1
2017-11-06T07:50:18.016Z,6.8
2017-11-06T07:52:17.771Z,15
2017-11-06T07:54:17.583Z,4.3
2017-11-06T07:56:17.385Z,5.7
2017-11-06T07:58:21.169Z,6.9
2017-11-06T08:00:20.964Z,18.1
2017-11-06T08:02:20.760Z,6.2
2017-11-06T08:04:18.535Z,5.1
2017-11-06T08:06:18.363Z,5.6
2017-11-06T08:08:18.121Z,12.1
2017-11-06T08:10:17.913Z,6.5
2017-11-06T08:12:18.674Z,6.7
2017-11-06T08:14:18.449Z,6
2017-11-06T08:16:17.281Z,9.7
2017-11-06T08:18:18.053Z,7.1
2017-11-06T08:20:17.823Z,4.5
2017-11-06T08:22:18.610Z,9.9
2017-11-06T08:24:18.405Z,7.4
2017-11-06T08:26:21.165Z,7.9
2017-11-06T08:28:17.972Z,4.4
2017-11-06T08:30:17.771Z,4.7
2017-11-06T08:32:18.566Z,3.3
2017-11-06T08:34:18.351Z,4.8
2017-11-06T08:36:17.138Z,5.2
2017-11-06T08:38:17.908Z,6.1
2017-11-06T08:40:17.730Z,6.4
2017-11-06T08:42:18.516Z,8.6
2017-11-06T08:44:21.298Z,7.8
2017-11-06T08:46:18.089Z,7
2017-11-06T08:48:20.902Z,5.4
2017-11-06T08:50:18.699Z,8.7
2017-11-06T08:52:21.485Z,5.7
2017-11-06T08:54:18.270Z,8.3
2017-11-06T08:56:18.045Z,6.3
2017-11-06T08:58:17.861Z,5.3
2017-11-06T09:00:18.645Z,6.1
2017-11-06T09:02:18.436Z,4.8
2017-11-06T09:04:18.225Z,9.5
2017-11-06T09:06:17.052Z,7.1
2017-11-06T09:08:17.806Z,4.9
2017-11-06T09:10:17.623Z,3.9
2017-11-06T09:12:18.401Z,9.2
2017-11-06T09:14:17.223Z,8.8
2017-11-06T09:16:17.027Z,12.3
2017-11-06T09:18:17.810Z,5.8
2017-11-06T09:20:21.614Z,11.2
2017-11-06T09:22:18.404Z,7.7
2017-11-06T09:24:18.224Z,6.2
2017-11-06T09:26:18.032Z,10.1
2017-11-06T09:28:17.814Z,6.7
2017-11-06T09:30:21.607Z,6.3
2017-11-06T09:32:21.433Z,7.3
2017-11-06T09:34:17.236Z,7.5
2017-11-06T09:36:18.101Z,6.8
2017-11-06T09:38:20.878Z,5.4
2017-11-06T09:40:17.717Z,9.9
2017-11-06T09:42:21.487Z,5.5
2017-11-06T09:44:17.344Z,4.6
2017-11-06T09:46:18.181Z,6.9
2017-11-06T09:48:20.978Z,7.6
2017-11-06T09:50:20.834Z,4.6
2017-11-06T09:52:21.635Z,8.5
2017-11-06T09:54:21.436Z,7
2017-11-06T09:56:18.285Z,6.4
2017-11-06T09:58:21.126Z,8.5
2017-11-06T10:00:20.943Z,10.5
2017-11-06T10:02:16.783Z,11.3
2017-11-06T10:04:18.606Z,6
2017-11-06T10:06:17.427Z,4.8
2017-11-06T10:08:17.261Z,6.1
2017-11-06T10:10:18.085Z,17.5
2017-11-06T10:12:20.881Z,9.2
2017-11-06T10:14:17.718Z,7.2
2017-11-06T10:16:17.562Z,12.1
2017-11-06T10:18:18.413Z,8
2017-11-06T10:20:18.200Z,4
2017-11-06T10:22:17.071Z,4.6
2017-11-06T10:24:20.882Z,5.7
2017-11-06T10:26:17.728Z,7.9
2017-11-06T10:28:17.599Z,11.3
2017-11-06T10:30:18.451Z,7
2017-11-06T10:32:18.202Z,6
2017-11-06T10:34:17.076Z,6.7
2017-11-06T10:36:16.863Z,6.7
2017-11-06T10:38:17.695Z,8.3
2017-11-06T10:40:17.535Z,4.7
2017-11-06T10:42:21.334Z,9.5
2017-11-06T10:44:17.188Z,18.1
2017-11-06T10:46:18.025Z,5.8
2017-11-06T10:48:16.854Z,5.3
2017-11-06T10:50:21.680Z,9
2017-11-06T10:52:21.491Z,10
2017-11-06T10:54:17.346Z,8.5
2017-11-06T10:56:18.165Z,11.5
2017-11-06T10:58:20.987Z,9.1
2017-11-06T11:00:17.825Z,9.1
2017-11-06T11:02:21.642Z,6.6
2017-11-06T11:04:17.479Z,9.2
2017-11-06T11:06:18.294Z,10.4
2017-11-06T11:08:21.121Z,9.5
2017-11-06T11:10:17.971Z,5.6
2017-11-06T11:12:20.763Z,5.5
2017-11-06T11:14:17.610Z,5.2
2017-11-06T11:16:17.450Z,9.3
2017-11-06T11:18:18.282Z,4.3
2017-11-06T11:20:18.082Z,10.6
2017-11-06T11:22:16.952Z,9.1
2017-11-06T11:24:20.753Z,8.2
2017-11-06T11:26:17.638Z,4.6
2017-11-06T11:28:18.438Z,7.3
2017-11-06T11:30:21.244Z,9.7
2017-11-06T11:32:17.076Z,13.9
2017-11-06T11:34:16.939Z,10.1
2017-11-06T11:36:17.734Z,8.5
2017-11-06T11:38:17.599Z,7.1
2017-11-06T11:40:17.434Z,10.2
2017-11-06T11:42:17.265Z,12.9
2017-11-06T11:44:17.132Z,4.4
2017-11-06T11:46:17.960Z,4.7
2017-11-06T11:48:16.805Z,8.2
2017-11-06T11:50:17.656Z,6.8
2017-11-06T11:52:17.491Z,6.1
2017-11-06T11:54:17.345Z,3.3
2017-11-06T11:56:17.188Z,5.3
2017-11-06T11:58:17.043Z,3.4
2017-11-06T12:00:16.901Z,7
2017-11-06T12:02:17.757Z,4.2
2017-11-06T12:04:17.624Z,5.9
2017-11-06T12:06:17.448Z,5.5
2017-11-06T12:08:17.302Z,6.6
2017-11-06T12:10:18.162Z,5.6
2017-11-06T12:12:16.999Z,7.3
2017-11-06T12:14:16.837Z,7.4
2017-11-06T12:16:17.712Z,6.2
2017-11-06T12:18:18.579Z,4.5
2017-11-06T12:20:18.524Z,8.4
2017-11-06T12:22:18.330Z,14.2
2017-11-06T12:24:17.165Z,3.2
2017-11-06T12:26:17.042Z,3.7
2017-11-06T12:28:16.921Z,3
2017-11-06T12:30:17.774Z,7.6
2017-11-06T12:32:17.638Z,14.2
2017-11-06T12:34:17.505Z,3.9
2017-11-06T12:36:17.414Z,9.1
2017-11-06T12:38:17.275Z,7.1
2017-11-06T12:40:18.140Z,13.9
2017-11-06T12:42:16.971Z,5.4
2017-11-06T12:44:16.867Z,7.4
2017-11-06T12:46:17.739Z,7.9
2017-11-06T12:48:17.605Z,5.2
2017-11-06T12:50:17.509Z,2.5
2017-11-06T12:52:17.382Z,4.1
2017-11-06T12:54:17.301Z,4.2
2017-11-06T12:56:17.177Z,5.2
2017-11-06T12:58:17.095Z,2.8
2017-11-06T13:00:16.962Z,3.6
2017-11-06T13:02:16.851Z,4.5
2017-11-06T13:04:17.752Z,6.1
2017-11-06T13:06:17.665Z,3.7
2017-11-06T13:08:17.545Z,3.6
2017-11-06T13:10:17.450Z,1.9
2017-11-06T13:12:17.361Z,4
2017-11-06T13:14:17.255Z,4.2
2017-11-06T13:16:18.164Z,2.4
2017-11-06T13:18:18.037Z,3.4
2017-11-06T13:20:16.923Z,6.5
2017-11-06T13:22:17.835Z,3.9
2017-11-06T13:24:17.745Z,4.3
2017-11-06T13:26:17.633Z,1.8
2017-11-06T13:28:17.551Z,4.7
2017-11-06T13:30:18.454Z,7.6
2017-11-06T13:32:17.369Z,2.8
2017-11-06T13:34:17.245Z,4.7
2017-11-06T13:36:17.133Z,7.5
2017-11-06T13:38:17.068Z,3.5
2017-11-06T13:40:17.969Z,7
2017-11-06T13:42:16.870Z,6.5
2017-11-06T13:44:17.806Z,3.6
2017-11-06T13:46:17.699Z,3.6
2017-11-06T13:48:17.576Z,5.3
2017-11-06T13:50:17.480Z,5.5
2017-11-06T13:52:17.381Z,1.5
2017-11-06T13:54:17.279Z,4.1
2017-11-06T13:56:17.177Z,4.7
2017-11-06T13:58:17.105Z,2.5
2017-11-06T14:00:16.998Z,1.6
2017-11-06T14:02:16.884Z,5.9
2017-11-06T14:04:17.782Z,2.1
2017-11-06T14:06:17.676Z,1.8
2017-11-06T14:08:17.574Z,2.9
2017-11-06T14:10:17.461Z,8.8
2017-11-06T14:12:17.344Z,2
2017-11-06T14:14:17.270Z,5.4
2017-11-06T14:16:17.168Z,4.8
2017-11-06T14:18:18.064Z,2.2
2017-11-06T14:20:16.965Z,7.9
2017-11-06T14:22:16.878Z,12.9
2017-11-06T14:24:17.726Z,4.7
2017-11-06T14:26:17.622Z,5.6
2017-11-06T14:28:17.471Z,10.8
2017-11-06T14:30:17.387Z,4.8
2017-11-06T14:32:17.261Z,6.4
2017-11-06T14:34:17.150Z,9
2017-11-06T14:36:17.013Z,6.1
2017-11-06T14:38:16.883Z,4.2
2017-11-06T14:40:17.785Z,6.9
2017-11-06T14:42:17.662Z,1.4
2017-11-06T14:44:17.566Z,4.4
2017-11-06T14:46:17.419Z,2.5
2017-11-06T14:48:17.321Z,2.7
2017-11-06T14:50:21.185Z,5.6
2017-11-06T14:52:17.093Z,4.7
2017-11-06T14:54:16.986Z,6.8
2017-11-06T14:56:17.855Z,2.4
2017-11-06T14:58:17.729Z,4.2
2017-11-06T15:00:17.649Z,3.5
2017-11-06T15:02:17.496Z,3
2017-11-06T15:04:17.368Z,4.3
2017-11-06T15:06:17.262Z,3.5
2017-11-06T15:08:17.142Z,5.2
2017-11-06T15:10:18.003Z,6.6
2017-11-06T15:12:16.883Z,2.7
2017-11-06T15:14:17.736Z,4.7
2017-11-06T15:16:17.600Z,6
2017-11-06T15:18:21.466Z,4.9
2017-11-06T15:20:21.337Z,4.1
2017-11-06T15:22:17.185Z,8.1
2017-11-06T15:24:17.064Z,3.5
2017-11-06T15:26:16.938Z,7.4
2017-11-06T15:28:16.794Z,4.5
2017-11-06T15:30:17.672Z,2.3
2017-11-06T15:32:17.534Z,7.6
2017-11-06T15:34:17.390Z,6.2
2017-11-06T15:36:18.269Z,5.6
2017-11-06T15:38:21.116Z,4.7
2017-11-06T15:40:18.023Z,5.9
2017-11-06T15:42:16.883Z,7.7
2017-11-06T15:44:17.715Z,4
2017-11-06T15:46:17.603Z,8.5
2017-11-06T15:48:17.496Z,3.5
2017-11-06T15:50:17.363Z,7.3
2017-11-06T15:52:17.247Z,2
2017-11-06T15:54:17.132Z,6.2
2017-11-06T15:56:18.015Z,5.8
2017-11-06T15:58:16.880Z,1.6
2017-11-06T16:00:17.749Z,6.4
2017-11-06T16:02:17.651Z,6.7
2017-11-06T16:04:17.523Z,2.8
2017-11-06T16:06:17.391Z,5.4
2017-11-06T16:08:17.274Z,5.7
2017-11-06T16:10:18.164Z,4
2017-11-06T16:12:17.045Z,8.3
2017-11-06T16:14:16.949Z,4.6
2017-11-06T16:16:17.808Z,4.5
2017-11-06T16:18:18.700Z,5.8
2017-11-06T16:20:17.578Z,2.8
2017-11-06T16:22:17.473Z,3.3
2017-11-06T16:24:17.362Z,7
2017-11-06T16:26:17.253Z,2.7
2017-11-06T16:28:17.092Z,16.2
2017-11-06T16:30:16.972Z,10.7
2017-11-06T16:32:16.868Z,10.9
2017-11-06T16:34:17.702Z,7
2017-11-06T16:36:17.591Z,8.5
2017-11-06T16:38:17.458Z,7.7
2017-11-06T16:40:17.290Z,6.9
2017-11-06T16:42:17.171Z,7.6
2017-11-06T16:44:17.038Z,11.2
2017-11-06T16:46:16.918Z,8
2017-11-06T16:48:17.788Z,15.9
2017-11-06T16:50:17.635Z,7.8
2017-11-06T16:52:17.506Z,7.1
2017-11-06T16:54:17.343Z,10.6
2017-11-06T16:56:18.224Z,10.2
2017-11-06T16:58:17.058Z,10.4
2017-11-06T17:00:17.901Z,7.5
2017-11-06T17:02:17.785Z,7.9
2017-11-06T17:04:17.654Z,7
2017-11-06T17:06:17.503Z,9.4
2017-11-06T17:08:17.366Z,10.3
2017-11-06T17:12:18.054Z,8.5
2017-11-06T17:14:16.908Z,13.3
2017-11-06T17:16:17.715Z,14.1
2017-11-06T17:18:18.581Z,11.6
2017-11-06T17:20:17.429Z,7.4
2017-11-06T17:22:17.247Z,11.9
2017-11-06T17:24:17.067Z,7.9
2017-11-06T17:26:17.958Z,10.1
2017-11-06T17:28:20.793Z,5.9
2017-11-06T17:30:21.592Z,11.1
2017-11-06T17:32:17.451Z,11
2017-11-06T17:34:18.290Z,9.5
2017-11-06T17:36:17.121Z,7.5
2017-11-06T17:38:16.938Z,9.7
2017-11-06T17:40:17.782Z,8.9
2017-11-06T17:42:17.632Z,7.5
2017-11-06T17:44:17.463Z,13.8
2017-11-06T17:46:18.312Z,12.9
2017-11-06T17:48:21.136Z,9.7
2017-11-06T17:50:20.966Z,6.9
2017-11-06T17:52:17.793Z,9.3
2017-11-06T17:54:21.584Z,9.2
2017-11-06T17:56:18.420Z,8.8
2017-11-06T17:58:17.280Z,16.7
2017-11-06T18:00:18.084Z,12.4
2017-11-06T18:02:16.942Z,8.9
2017-11-06T18:04:21.733Z,9.8
2017-11-06T18:06:17.564Z,9.5
2017-11-06T18:08:21.369Z,11.2
2017-11-06T18:10:18.198Z,10.4
2017-11-06T18:12:21.000Z,9.2
2017-11-06T18:14:20.798Z,15.8
2017-11-06T18:16:17.616Z,10.1
2017-11-06T18:18:18.452Z,8.3
2017-11-06T18:20:21.239Z,13.2
2017-11-06T18:22:17.118Z,12.5
2017-11-06T18:24:17.900Z,15.4
2017-11-06T18:26:17.693Z,10.2
2017-11-06T18:28:17.530Z,11.9
2017-11-06T18:30:18.332Z,13.7
2017-11-06T18:32:17.160Z,13.6
2017-11-06T18:34:16.986Z,11.4
2017-11-06T18:36:17.834Z,11.3
2017-11-06T18:38:18.608Z,9.5
2017-11-06T18:40:17.456Z,9.6
2017-11-06T18:42:18.251Z,10.9
2017-11-06T18:44:21.054Z,9
2017-11-06T18:46:17.871Z,11.7
2017-11-06T18:48:21.671Z,10.9
2017-11-06T18:50:21.462Z,13.4
2017-11-06T18:52:21.258Z,11.7
2017-11-06T18:54:17.099Z,8.7
2017-11-06T18:56:17.889Z,16.8
2017-11-06T18:58:21.681Z,10.6
2017-11-06T19:00:17.524Z,15.2
2017-11-06T19:02:21.327Z,10.1
2017-11-06T19:04:21.138Z,9.9
2017-11-06T19:06:17.956Z,14.6
2017-11-06T19:08:20.769Z,13.9
2017-11-06T19:10:17.569Z,13.4
2017-11-06T19:12:17.375Z,12.4
2017-11-06T19:14:17.221Z,13.3
2017-11-06T19:16:18.033Z,10.2
2017-11-06T19:18:17.865Z,11.8
2017-11-06T19:20:18.663Z,10.7
2017-11-06T19:22:21.431Z,17.1
2017-11-06T19:24:21.229Z,14.1
2017-11-06T19:26:18.065Z,10.5
2017-11-06T19:28:20.846Z,13.8
2017-11-06T19:30:17.708Z,11.3
2017-11-06T19:32:18.501Z,9.6
2017-11-06T19:34:21.300Z,12.1
2017-11-06T19:36:17.162Z,12.1
2017-11-06T19:38:17.941Z,18.7
2017-11-06T19:40:17.789Z,12.2
2017-11-06T19:42:21.607Z,17.7
2017-11-06T19:44:18.392Z,9.9
2017-11-06T19:46:17.206Z,17.5
2017-11-06T19:48:17.068Z,15.1
2017-11-06T19:50:17.828Z,14.8
2017-11-06T19:52:21.635Z,14.9
2017-11-06T19:54:17.464Z,11.8
2017-11-06T19:56:17.246Z,13.7
2017-11-06T19:58:18.062Z,13.3
2017-11-06T20:00:20.868Z,13.7
2017-11-06T20:02:17.674Z,13.4
2017-11-06T20:04:21.460Z,15.3
2017-11-06T20:06:18.282Z,17.3
2017-11-06T20:08:21.076Z,24.6
2017-11-06T20:10:17.878Z,25.7
2017-11-06T20:12:21.648Z,22
2017-11-06T20:14:17.492Z,14.9
2017-11-06T20:16:18.276Z,24.5
2017-11-06T20:18:18.043Z,18.5
2017-11-06T20:20:20.841Z,24.5
2017-11-06T20:22:21.644Z,23.5
2017-11-06T20:24:18.416Z,20
2017-11-06T20:26:18.204Z,34.8
2017-11-06T20:28:17.959Z,18.1
2017-11-06T20:30:17.755Z,29.1
2017-11-06T20:32:18.549Z,12.7
2017-11-06T20:34:18.305Z,19.2
2017-11-06T20:36:18.056Z,16.8
2017-11-06T20:38:17.848Z,30.9
2017-11-06T20:40:17.624Z,17.5
2017-11-06T20:42:18.407Z,14.4
2017-11-06T20:44:18.201Z,14.9
2017-11-06T20:46:17.956Z,10
2017-11-06T20:48:17.769Z,14.1
2017-11-06T20:50:18.537Z,14.8
2017-11-06T20:52:18.316Z,12.4
2017-11-06T20:54:18.096Z,15.7
2017-11-06T20:56:17.891Z,13.2
2017-11-06T20:58:18.655Z,17.9
2017-11-06T21:00:18.457Z,21.2
2017-11-06T21:02:18.232Z,11.7
2017-11-06T21:04:20.991Z,9.5
2017-11-06T21:06:17.779Z,12
2017-11-06T21:08:21.571Z,22
2017-11-06T21:10:17.349Z,12.8
2017-11-06T21:12:18.124Z,14.5
2017-11-06T21:14:17.891Z,17
2017-11-06T21:16:17.684Z,8.7
2017-11-06T21:18:18.481Z,25.7
2017-11-06T21:20:18.240Z,8.5
2017-11-06T21:22:18.065Z,14.6
2017-11-06T21:24:20.831Z,31.6
2017-11-06T21:26:17.678Z,12.2
2017-11-06T21:28:18.447Z,12.5
2017-11-06T21:30:18.252Z,23.8
2017-11-06T21:32:18.035Z,19.6
2017-11-06T21:34:20.838Z,10
2017-11-06T21:36:17.660Z,10.9
2017-11-06T21:38:18.438Z,12.9
2017-11-06T21:40:17.240Z,14.5
2017-11-06T21:42:18.020Z,28.5
2017-11-06T21:44:20.782Z,12.9
2017-11-06T21:46:17.593Z,18.2
2017-11-06T21:48:21.378Z,10.2
2017-11-06T21:50:18.166Z,13.7
2017-11-06T21:52:20.956Z,8.5
2017-11-06T21:54:20.772Z,10.1
2017-11-06T21:56:21.549Z,16.9
2017-11-06T21:58:18.336Z,23.9
2017-11-06T22:00:18.102Z,14.5
2017-11-06T22:02:20.872Z,12.8
2017-11-06T22:04:18.662Z,13.3
2017-11-06T22:06:17.429Z,10.1
2017-11-06T22:08:18.218Z,14
2017-11-06T22:10:18.003Z,18.9
2017-11-06T22:12:17.772Z,12.7
2017-11-06T22:14:18.541Z,11.1
2017-11-06T22:16:18.312Z,19.6
2017-11-06T22:18:18.102Z,13
2017-11-06T22:20:17.853Z,12.2
2017-11-06T22:22:18.614Z,20
2017-11-06T22:24:21.423Z,15.8
2017-11-06T22:26:18.229Z,12.1
2017-11-06T22:28:21.031Z,15.3
2017-11-06T22:30:17.817Z,18.9
2017-11-06T22:32:18.593Z,14.4
2017-11-06T22:34:18.352Z,11.9
2017-11-06T22:36:21.144Z,15.2
2017-11-06T22:38:17.929Z,22
2017-11-06T22:40:17.709Z,21.2
2017-11-06T22:42:18.472Z,36.9
2017-11-06T22:44:18.235Z,18.1
2017-11-06T22:46:18.030Z,35.4
2017-11-06T22:48:17.801Z,31.9
2017-11-06T22:50:18.570Z,29.3
2017-11-06T22:52:21.344Z,6.4
2017-11-06T22:54:18.130Z,20.4
2017-11-06T22:56:17.932Z,14.2
2017-11-06T22:58:17.671Z,17.9
2017-11-06T23:00:21.442Z,16.8
2017-11-06T23:02:18.222Z,14
2017-11-06T23:04:17.979Z,30.6
2017-11-06T23:06:17.795Z,28.7
2017-11-06T23:08:18.540Z,8.1
2017-11-06T23:10:17.315Z,19.6
2017-11-06T23:12:18.093Z,18.2
2017-11-06T23:14:17.861Z,9
2017-11-06T23:16:17.663Z,17.1
2017-11-06T23:18:18.460Z,8.7
2017-11-06T23:20:18.187Z,19.2
2017-11-06T23:22:17.961Z,7.2
2017-11-06T23:24:17.730Z,34.3
2017-11-06T23:26:17.511Z,9.2
2017-11-06T23:28:18.311Z,26.6
2017-11-06T23:30:18.068Z,9.8
2017-11-06T23:32:17.872Z,10.8
2017-11-06T23:34:18.601Z,23.1
2017-11-06T23:36:17.407Z,18.6
2017-11-06T23:38:18.167Z,14
2017-11-06T23:40:17.935Z,14
2017-11-06T23:42:17.732Z,18.1
2017-11-06T23:44:18.510Z,28.4
2017-11-06T23:46:17.290Z,13.5
2017-11-06T23:48:18.071Z,22.8
2017-11-06T23:50:17.845Z,13.9
2017-11-06T23:52:18.598Z,10.6
2017-11-06T23:54:18.396Z,12.8
2017-11-06T23:56:17.167Z,17.9
2017-11-06T23:58:20.934Z,13.7
